createdAt,value
2022-09-20T03:01:42.514Z,1.58
2022-09-20T03:04:30.696Z,1.00
2022-09-20T03:07:30.059Z,1.30
2022-09-20T03:10:24.038Z,1.85
2022-09-20T03:13:17.872Z,1.70
2022-09-20T03:15:47.235Z,1.15
2022-09-20T03:18:27.026Z,1.30
2022-09-20T03:21:22.615Z,1.30
2022-09-20T03:23:57.866Z,1.20
2022-09-20T03:26:34.520Z,1.40
2022-09-20T03:29:09.226Z,0.98
2022-09-20T03:32:04.625Z,1.58
2022-09-20T03:34:33.989Z,1.20
2022-09-20T03:37:22.235Z,1.52
2022-09-20T03:40:46.632Z,1.20
2022-09-20T03:43:35.577Z,1.52
2022-09-20T03:46:18.894Z,1.40
2022-09-20T03:49:16.038Z,1.20
2022-09-20T03:52:06.944Z,1.13
2022-09-20T03:55:02.471Z,1.15
2022-09-20T03:57:41.799Z,1.95
2022-09-20T04:00:08.163Z,1.33
2022-09-20T04:03:01.098Z,1.73
2022-09-20T04:06:13.694Z,1.17
2022-09-20T04:08:45.757Z,1.70
2022-09-20T04:11:15.733Z,1.38
2022-09-20T04:14:01.073Z,1.95
2022-09-20T04:16:59.859Z,1.50
2022-09-20T04:19:38.060Z,2.70
2022-09-20T04:22:07.387Z,8.27
2022-09-20T04:24:53.023Z,3.88
2022-09-20T04:27:34.729Z,2.95
2022-09-20T04:30:29.803Z,3.10
2022-09-20T04:33:21.816Z,1.90
2022-09-20T04:36:16.165Z,1.73
2022-09-20T04:38:43.039Z,1.90
2022-09-20T04:41:19.833Z,1.13
2022-09-20T04:44:23.087Z,1.60
2022-09-20T04:47:05.929Z,6.13
2022-09-20T04:49:33.684Z,4.35
2022-09-20T04:52:37.110Z,2.13
2022-09-20T04:55:35.393Z,2.15
2022-09-20T04:58:10.597Z,2.10
2022-09-20T05:00:52.670Z,2.10
2022-09-20T05:03:29.539Z,2.03
2022-09-20T05:06:33.407Z,1.83
2022-09-20T05:09:30.404Z,2.33
2022-09-20T05:12:21.401Z,2.17
2022-09-20T05:15:38.279Z,1.90
2022-09-20T05:18:42.825Z,1.85
2022-09-20T05:21:30.115Z,2.08
2022-09-20T05:24:33.723Z,1.67
2022-09-20T05:27:28.521Z,1.75
2022-09-20T05:30:13.389Z,1.92
2022-09-20T05:33:02.805Z,1.60
2022-09-20T05:35:58.492Z,2.60
2022-09-20T05:38:45.555Z,1.85
2022-09-20T05:41:24.324Z,1.80
2022-09-20T05:44:12.787Z,1.90
2022-09-20T05:46:58.964Z,2.10
2022-09-20T05:49:52.518Z,3.50
2022-09-20T05:52:44.114Z,1.83
2022-09-20T05:55:47.822Z,2.20
2022-09-20T05:58:32.231Z,1.88
2022-09-20T06:01:18.936Z,1.48
2022-09-20T06:03:54.447Z,1.45
2022-09-20T06:06:51.049Z,1.15
2022-09-20T06:09:39.344Z,1.60
2022-09-20T06:12:08.713Z,1.55
2022-09-20T06:15:00.829Z,1.70
2022-09-20T06:17:38.675Z,1.48
2022-09-20T06:20:17.168Z,1.40
2022-09-20T06:22:47.204Z,1.45
2022-09-20T06:25:20.140Z,1.50
2022-09-20T06:27:59.288Z,1.20
2022-09-20T06:30:40.920Z,1.60
2022-09-20T06:33:07.329Z,1.60
2022-09-20T06:35:39.396Z,1.27
2022-09-20T06:38:36.790Z,1.10
2022-09-20T06:41:22.277Z,5.32
2022-09-20T06:43:49.015Z,5.03
2022-09-20T06:46:16.181Z,3.72
2022-09-20T06:48:42.895Z,2.00
2022-09-20T06:51:09.647Z,2.03
2022-09-20T06:53:40.991Z,1.27
2022-09-20T06:56:17.323Z,1.50
2022-09-20T06:58:43.848Z,1.50
2022-09-20T07:01:10.446Z,1.25
2022-09-20T07:03:38.435Z,1.65
2022-09-20T07:06:05.024Z,1.17
2022-09-20T07:08:31.549Z,1.20
2022-09-20T07:11:04.056Z,1.63
2022-09-20T07:13:30.519Z,1.30
2022-09-20T07:16:02.445Z,1.30
2022-09-20T07:18:29.389Z,1.38
2022-09-20T07:20:58.759Z,1.70
2022-09-20T07:23:26.333Z,1.33
2022-09-20T07:25:53.634Z,1.60
2022-09-20T07:28:20.713Z,1.38
2022-09-20T07:30:47.793Z,1.50
2022-09-20T07:33:19.509Z,1.25
2022-09-20T07:38:13.738Z,1.52
2022-09-20T07:40:40.179Z,1.40
2022-09-20T07:43:06.771Z,1.80
2022-09-20T07:45:35.111Z,1.55
2022-09-20T07:48:05.247Z,1.30
2022-09-20T07:50:32.705Z,1.10
2022-09-20T07:52:59.477Z,1.27
2022-09-20T07:55:25.931Z,1.25
2022-09-20T07:57:52.446Z,1.20
2022-09-20T08:00:18.998Z,1.50
2022-09-20T08:02:45.665Z,1.25
2022-09-20T08:05:12.465Z,1.33
2022-09-20T08:07:39.368Z,1.20
2022-09-20T08:10:06.232Z,1.40
2022-09-20T08:15:19.722Z,1.60
2022-09-20T08:17:47.490Z,1.27
2022-09-20T08:20:14.002Z,1.88
2022-09-20T08:22:42.956Z,2.05
2022-09-20T08:25:09.517Z,1.50
2022-09-20T08:27:36.112Z,1.55
2022-09-20T08:30:02.713Z,1.50
2022-09-20T08:32:29.109Z,1.60
2022-09-20T08:34:55.542Z,1.52
2022-09-20T08:37:21.991Z,1.35
2022-09-20T08:39:57.908Z,1.48
2022-09-20T08:42:36.655Z,1.80
2022-09-20T08:45:21.817Z,1.73
2022-09-20T08:48:02.184Z,1.70
2022-09-20T08:50:29.013Z,1.58
2022-09-20T08:53:04.943Z,2.08
2022-09-20T08:55:39.952Z,1.80
2022-09-20T08:58:12.085Z,1.67
2022-09-20T09:00:46.862Z,1.45
2022-09-20T09:03:16.901Z,1.88
2022-09-20T09:05:50.129Z,1.77
2022-09-20T09:08:37.911Z,1.70
2022-09-20T09:11:14.626Z,1.88
2022-09-20T09:13:53.667Z,1.75
2022-09-20T09:16:27.445Z,1.35
2022-09-20T09:18:57.715Z,1.85
2022-09-20T09:21:27.129Z,1.52
2022-09-20T09:24:05.996Z,1.67
2022-09-20T09:26:38.774Z,1.90
2022-09-20T09:29:09.411Z,1.92
2022-09-20T09:31:37.255Z,1.47
2022-09-20T09:34:04.205Z,1.63
2022-09-20T09:36:33.734Z,1.80
2022-09-20T09:39:22.587Z,1.50
2022-09-20T09:41:49.450Z,2.22
2022-09-20T09:44:20.624Z,1.58
2022-09-20T09:46:47.839Z,1.80
2022-09-20T09:49:24.943Z,1.65
2022-09-20T09:52:12.922Z,2.00
2022-09-20T09:54:47.169Z,1.80
2022-09-20T09:57:41.406Z,1.90
2022-09-20T10:00:21.531Z,2.35
2022-09-20T10:03:13.059Z,4.85
2022-09-20T10:06:00.485Z,3.33
2022-09-20T10:09:06.282Z,3.60
2022-09-20T10:12:11.651Z,1.45
2022-09-20T10:14:56.145Z,1.48
2022-09-20T10:17:28.226Z,1.60
2022-09-20T10:20:28.102Z,1.83
2022-09-20T10:24:01.555Z,1.48
2022-09-20T10:26:11.329Z,1.52
2022-09-20T10:28:58.743Z,1.73
2022-09-20T10:32:04.233Z,2.00
2022-09-20T10:34:30.587Z,1.83
2022-09-20T10:36:58.973Z,1.85
2022-09-20T10:39:38.399Z,1.40
2022-09-20T10:43:04.910Z,1.30
2022-09-20T10:46:08.830Z,1.42
2022-09-20T10:48:35.675Z,1.85
2022-09-20T10:51:15.767Z,2.22
2022-09-20T10:53:48.069Z,2.13
2022-09-20T10:56:36.702Z,1.88
2022-09-20T10:59:32.467Z,2.05
2022-09-20T11:02:14.015Z,1.77
2022-09-20T11:04:56.927Z,2.03
2022-09-20T11:07:57.116Z,2.22
2022-09-20T11:10:57.688Z,1.52
2022-09-20T11:13:34.019Z,1.90
2022-09-20T11:16:17.286Z,1.80
2022-09-20T11:19:16.140Z,2.08
2022-09-20T11:21:50.713Z,2.38
2022-09-20T11:24:26.622Z,2.10
2022-09-20T11:27:24.600Z,2.25
2022-09-20T11:30:19.002Z,1.85
2022-09-20T11:33:06.161Z,2.05
2022-09-20T11:35:44.760Z,1.92
2022-09-20T11:38:32.870Z,4.18
2022-09-20T11:41:17.209Z,2.78
2022-09-20T11:43:45.944Z,2.38
2022-09-20T11:46:38.472Z,1.83
2022-09-20T11:49:12.674Z,1.98
2022-09-20T11:51:46.261Z,1.23
2022-09-20T11:54:22.937Z,1.98
2022-09-20T11:56:56.539Z,2.53
2022-09-20T11:59:30.603Z,2.30
2022-09-20T12:02:00.393Z,2.42
2022-09-20T12:04:35.021Z,2.88
2022-09-20T12:07:18.072Z,2.50
2022-09-20T12:10:23.317Z,3.40
2022-09-20T12:12:57.713Z,4.72
2022-09-20T12:15:26.059Z,4.38
2022-09-20T12:17:52.613Z,4.32
2022-09-20T12:20:58.234Z,4.68
2022-09-20T12:23:43.409Z,4.88
2022-09-20T12:26:11.143Z,5.03
2022-09-20T12:29:04.392Z,4.50
2022-09-20T12:31:33.821Z,4.15
2022-09-20T12:34:04.521Z,3.72
2022-09-20T12:36:36.394Z,3.42
2022-09-20T12:39:12.091Z,4.30
2022-09-20T12:41:58.458Z,3.72
2022-09-20T12:44:46.989Z,4.18
2022-09-20T12:47:13.596Z,4.88
2022-09-20T12:50:07.873Z,3.45
2022-09-20T12:53:03.836Z,2.47
2022-09-20T12:55:32.472Z,2.35
2022-09-20T12:58:07.480Z,2.50
2022-09-20T13:00:48.185Z,2.28
2022-09-20T13:03:23.950Z,1.70
2022-09-20T13:06:17.509Z,2.00
2022-09-20T13:08:54.123Z,1.90
2022-09-20T13:11:23.496Z,1.58
2022-09-20T13:13:55.573Z,1.30
2022-09-20T13:16:36.311Z,1.20
2022-09-20T13:19:29.926Z,1.00
2022-09-20T13:22:27.161Z,0.63
2022-09-20T13:24:59.541Z,7.35
2022-09-20T13:27:32.388Z,4.63
2022-09-20T13:30:26.879Z,2.08
2022-09-20T13:32:53.481Z,0.80
2022-09-20T13:35:31.709Z,1.20
2022-09-20T13:38:07.209Z,1.10
2022-09-20T13:40:43.704Z,0.90
2022-09-20T13:43:37.937Z,1.40
2022-09-20T13:46:07.300Z,0.93
2022-09-20T13:48:34.588Z,0.85
2022-09-20T13:51:01.125Z,1.33
2022-09-20T13:53:41.007Z,1.00
2022-09-20T13:56:18.115Z,1.00
2022-09-20T13:58:44.702Z,1.05
2022-09-20T14:01:32.705Z,1.33
2022-09-20T14:04:15.123Z,0.93
2022-09-20T14:06:42.486Z,1.20
2022-09-20T14:09:20.514Z,2.00
2022-09-20T14:11:47.315Z,1.35
2022-09-20T14:14:18.580Z,0.98
2022-09-20T14:16:49.543Z,0.60
2022-09-20T14:19:19.045Z,1.20
2022-09-20T14:21:46.145Z,0.80
2022-09-20T14:24:32.915Z,0.77
2022-09-20T14:27:13.240Z,1.48
2022-09-20T14:29:50.446Z,1.25
2022-09-20T14:32:16.871Z,0.80
2022-09-20T14:35:00.397Z,1.23
2022-09-20T14:37:44.589Z,0.65
2022-09-20T14:40:27.425Z,0.70
2022-09-20T14:42:57.739Z,0.65
2022-09-20T14:45:38.898Z,0.70
2022-09-20T14:48:11.108Z,0.70
2022-09-20T14:50:37.980Z,0.63
2022-09-20T14:53:26.555Z,0.82
2022-09-20T14:56:06.822Z,0.63
2022-09-20T14:58:54.799Z,0.60
2022-09-20T15:01:24.398Z,0.68
2022-09-20T15:03:52.294Z,0.93
2022-09-20T15:06:19.094Z,1.13
2022-09-20T15:08:46.848Z,0.85
2022-09-20T15:11:20.409Z,0.43
2022-09-20T15:13:46.897Z,0.70
2022-09-20T15:16:15.004Z,0.80
2022-09-20T15:18:43.332Z,0.52
2022-09-20T15:21:13.322Z,0.93
2022-09-20T15:23:40.465Z,0.93
2022-09-20T15:26:08.791Z,0.77
2022-09-20T15:28:35.298Z,0.50
2022-09-20T15:31:01.827Z,0.80
2022-09-20T15:33:30.967Z,0.80
2022-09-20T15:35:58.250Z,0.40
2022-09-20T15:38:26.992Z,1.10
2022-09-20T15:40:54.108Z,0.43
2022-09-20T15:43:24.232Z,0.70
2022-09-20T15:45:54.057Z,0.90
2022-09-20T15:48:25.960Z,1.05
2022-09-20T15:51:02.088Z,0.73
2022-09-20T15:53:40.788Z,0.82
2022-09-20T15:56:34.883Z,0.70
2022-09-20T15:59:04.383Z,2.55
2022-09-20T16:01:37.565Z,0.85
2022-09-20T16:04:10.414Z,1.25
2022-09-20T16:06:38.183Z,1.00
2022-09-20T16:09:05.788Z,0.70
2022-09-20T16:11:32.462Z,1.00
2022-09-20T16:14:00.188Z,0.95
2022-09-20T16:16:35.033Z,1.17
2022-09-20T16:19:19.790Z,1.48
2022-09-20T16:21:57.626Z,1.10
2022-09-20T16:24:30.962Z,1.02
2022-09-20T16:27:00.771Z,1.17
2022-09-20T16:29:29.417Z,0.90
2022-09-20T16:31:57.627Z,1.30
2022-09-20T16:34:33.190Z,1.38
2022-09-20T16:37:05.952Z,1.50
2022-09-20T16:39:32.804Z,1.48
2022-09-20T16:42:04.928Z,1.63
2022-09-20T16:44:34.139Z,1.40
2022-09-20T16:47:01.234Z,1.00
2022-09-20T16:49:27.885Z,1.60
2022-09-20T16:51:54.689Z,1.30
2022-09-20T16:54:21.209Z,1.42
2022-09-20T16:56:49.568Z,1.35
2022-09-20T16:59:24.073Z,1.70
2022-09-20T17:01:51.101Z,1.38
2022-09-20T17:04:18.892Z,2.30
2022-09-20T17:06:45.911Z,1.83
2022-09-20T17:09:13.745Z,1.60
2022-09-20T17:11:50.871Z,2.10
2022-09-20T17:14:20.275Z,2.38
2022-09-20T17:16:48.039Z,2.17
2022-09-20T17:19:16.862Z,2.08
2022-09-20T17:21:45.133Z,2.40
2022-09-20T17:24:13.706Z,2.80
2022-09-20T17:26:44.632Z,2.50
2022-09-20T17:29:13.936Z,2.22
2022-09-20T17:31:42.394Z,2.00
2022-09-20T17:34:11.057Z,2.08
2022-09-20T17:36:40.735Z,2.17
2022-09-20T17:39:10.869Z,2.22
2022-09-20T17:41:38.224Z,2.10
2022-09-20T17:44:12.033Z,2.60
2022-09-20T17:46:43.678Z,2.33
2022-09-20T17:49:12.681Z,2.38
2022-09-20T17:51:42.196Z,2.53
2022-09-20T17:54:12.825Z,2.15
2022-09-20T17:56:47.554Z,2.50
2022-09-20T17:59:18.143Z,8.52
2022-09-20T18:01:46.910Z,7.15
2022-09-20T18:04:13.845Z,4.32
2022-09-20T18:06:48.906Z,3.47
2022-09-20T18:09:17.647Z,3.65
2022-09-20T18:11:46.377Z,3.85
2022-09-20T18:14:15.624Z,3.63
2022-09-20T18:16:45.673Z,4.18
2022-09-20T18:19:13.082Z,3.30
2022-09-20T18:21:40.842Z,3.55
2022-09-20T18:24:09.263Z,2.92
2022-09-20T18:26:36.999Z,2.70
2022-09-20T18:29:11.032Z,3.28
2022-09-20T18:31:48.978Z,2.97
2022-09-20T18:34:20.917Z,2.80
2022-09-20T18:36:52.883Z,3.22
2022-09-20T18:39:24.156Z,3.35
2022-09-20T18:41:52.895Z,2.97
2022-09-20T18:44:20.240Z,3.20
2022-09-20T18:46:47.043Z,3.15
2022-09-20T18:49:15.089Z,2.97
2022-09-20T18:51:42.687Z,3.05
2022-09-20T18:54:10.555Z,3.30
2022-09-20T18:56:39.497Z,3.53
2022-09-20T18:59:10.219Z,3.50
2022-09-20T19:01:42.855Z,2.73
2022-09-20T19:04:12.387Z,3.35
2022-09-20T19:06:58.632Z,4.50
2022-09-20T19:09:43.599Z,4.72
2022-09-20T19:12:23.326Z,3.92
2022-09-20T19:15:03.873Z,3.60
2022-09-20T19:17:57.307Z,3.60
2022-09-20T19:20:48.565Z,3.50
2022-09-20T19:23:41.186Z,4.03
2022-09-20T19:26:18.971Z,3.13
2022-09-20T19:28:46.170Z,3.50
2022-09-20T19:31:27.490Z,4.55
2022-09-20T19:33:56.075Z,3.85
2022-09-20T19:36:24.175Z,3.92
2022-09-20T19:38:58.260Z,4.18
2022-09-20T19:41:27.270Z,4.10
2022-09-20T19:44:28.535Z,4.22
2022-09-20T19:47:16.372Z,4.10
2022-09-20T19:49:55.757Z,3.90
2022-09-20T19:52:25.253Z,3.35
2022-09-20T19:54:52.406Z,3.83
2022-09-20T19:57:22.704Z,4.03
2022-09-20T19:59:50.946Z,3.70
